createdAt,value
2022-12-20T00:01:58.858Z,15.00
2022-12-20T00:04:44.437Z,16.43
2022-12-20T00:07:29.908Z,17.27
2022-12-20T00:10:15.229Z,15.00
2022-12-20T00:13:00.564Z,14.90
2022-12-20T00:15:46.358Z,12.83
2022-12-20T00:18:31.999Z,14.97
2022-12-20T00:21:17.481Z,13.10
2022-12-20T00:24:03.391Z,13.10
2022-12-20T00:26:48.717Z,12.47
2022-12-20T00:29:34.048Z,13.30
2022-12-20T00:32:19.465Z,13.17
2022-12-20T00:35:05.677Z,14.00
2022-12-20T00:37:50.870Z,13.63
2022-12-20T00:40:36.351Z,13.83
2022-12-20T00:43:21.598Z,14.30
2022-12-20T00:46:08.552Z,13.43
2022-12-20T00:48:55.298Z,15.37
2022-12-20T00:51:40.998Z,15.50
2022-12-20T00:54:26.169Z,13.77
2022-12-20T00:57:11.651Z,13.47
2022-12-20T00:59:57.668Z,11.83
2022-12-20T01:02:43.104Z,14.73
2022-12-20T01:05:28.958Z,15.37
2022-12-20T01:08:14.237Z,15.10
2022-12-20T01:11:13.423Z,13.47
2022-12-20T01:14:08.429Z,13.90
2022-12-20T01:16:53.805Z,11.50
2022-12-20T01:19:40.303Z,11.40
2022-12-20T01:22:25.701Z,10.60
2022-12-20T01:25:11.080Z,13.87
2022-12-20T01:27:56.242Z,11.83
2022-12-20T01:30:42.140Z,11.60
2022-12-20T01:33:28.406Z,12.77
2022-12-20T01:36:19.915Z,10.90
2022-12-20T01:39:12.663Z,13.50
2022-12-20T01:41:57.906Z,10.13
2022-12-20T01:44:43.291Z,13.77
2022-12-20T01:47:33.746Z,13.10
2022-12-20T01:50:19.767Z,11.67
2022-12-20T01:53:06.058Z,12.63
2022-12-20T01:55:51.675Z,11.77
2022-12-20T01:58:38.772Z,12.37
2022-12-20T02:01:25.097Z,10.53
2022-12-20T02:04:10.798Z,11.60
2022-12-20T02:06:56.145Z,11.90
2022-12-20T02:09:42.271Z,10.97
2022-12-20T02:12:52.742Z,12.67
2022-12-20T02:15:38.289Z,12.03
2022-12-20T02:18:27.634Z,13.60
2022-12-20T02:21:24.434Z,13.00
2022-12-20T02:24:25.100Z,12.23
2022-12-20T02:27:52.121Z,9.90
2022-12-20T02:30:45.169Z,10.63
2022-12-20T02:33:30.575Z,10.70
2022-12-20T02:36:18.950Z,10.93
2022-12-20T02:39:04.464Z,9.80
2022-12-20T02:42:05.812Z,10.13
2022-12-20T02:45:03.926Z,10.17
2022-12-20T02:47:55.839Z,11.20
2022-12-20T02:50:53.318Z,11.33
2022-12-20T02:53:42.167Z,11.50
2022-12-20T02:57:02.559Z,11.23
2022-12-20T03:00:02.412Z,11.20
2022-12-20T03:02:49.283Z,10.27
2022-12-20T03:05:43.237Z,8.23
2022-12-20T03:08:28.607Z,11.97
2022-12-20T03:11:13.796Z,10.87
2022-12-20T03:13:59.189Z,10.07
2022-12-20T03:16:44.748Z,9.47
2022-12-20T03:19:30.695Z,9.83
2022-12-20T03:22:16.927Z,11.00
2022-12-20T03:25:02.475Z,11.10
2022-12-20T03:27:47.935Z,11.13
2022-12-20T03:30:33.619Z,9.87
2022-12-20T03:33:18.881Z,11.27
2022-12-20T03:36:04.475Z,9.47
2022-12-20T03:38:51.086Z,12.60
2022-12-20T03:41:37.252Z,10.37
2022-12-20T03:44:23.093Z,9.47
2022-12-20T03:47:08.846Z,9.83
2022-12-20T03:49:54.113Z,10.93
2022-12-20T03:52:39.284Z,13.27
2022-12-20T03:55:24.401Z,12.00
2022-12-20T03:58:10.054Z,10.30
2022-12-20T04:00:57.324Z,10.27
2022-12-20T04:03:42.650Z,9.50
2022-12-20T04:06:28.167Z,10.87
2022-12-20T04:09:14.255Z,12.00
2022-12-20T04:11:59.856Z,11.17
2022-12-20T04:14:45.470Z,13.33
2022-12-20T04:17:30.812Z,11.13
2022-12-20T04:20:17.570Z,12.83
2022-12-20T04:23:02.857Z,11.93
2022-12-20T04:25:48.245Z,12.57
2022-12-20T04:28:34.542Z,10.50
2022-12-20T04:31:24.090Z,12.00
2022-12-20T04:34:10.095Z,11.03
2022-12-20T04:36:55.416Z,11.93
2022-12-20T04:39:40.582Z,13.33
2022-12-20T04:42:26.210Z,13.20
2022-12-20T04:45:11.776Z,12.57
2022-12-20T04:47:57.368Z,11.93
2022-12-20T04:50:42.969Z,12.77
2022-12-20T04:53:28.500Z,12.20
2022-12-20T04:56:16.297Z,12.53
2022-12-20T04:59:01.824Z,13.67
2022-12-20T05:01:47.221Z,12.93
2022-12-20T05:04:37.363Z,14.57
2022-12-20T05:07:23.258Z,12.37
2022-12-20T05:10:09.168Z,14.40
2022-12-20T05:12:54.546Z,15.93
2022-12-20T05:15:39.836Z,15.20
2022-12-20T05:18:26.810Z,14.93
2022-12-20T05:21:12.103Z,12.97
2022-12-20T05:23:57.352Z,16.20
2022-12-20T05:26:42.616Z,14.53
2022-12-20T05:29:28.258Z,15.07
2022-12-20T05:32:13.551Z,15.00
2022-12-20T05:34:58.949Z,13.23
2022-12-20T05:37:44.242Z,16.80
2022-12-20T05:40:29.698Z,14.83
2022-12-20T05:43:15.896Z,13.53
2022-12-20T05:46:01.644Z,14.63
2022-12-20T05:48:46.972Z,14.10
2022-12-20T05:51:32.723Z,15.73
2022-12-20T05:54:18.137Z,13.73
2022-12-20T05:57:03.704Z,17.17
2022-12-20T05:59:49.300Z,13.93
2022-12-20T06:02:34.719Z,14.30
2022-12-20T06:05:20.528Z,13.93
2022-12-20T06:08:07.643Z,14.70
2022-12-20T06:10:53.655Z,14.33
2022-12-20T06:13:39.031Z,14.27
2022-12-20T06:16:24.283Z,15.50
2022-12-20T06:19:14.728Z,15.27
2022-12-20T06:22:06.170Z,16.67
2022-12-20T06:24:51.497Z,14.60
2022-12-20T06:27:37.221Z,15.20
2022-12-20T06:30:22.930Z,15.40
2022-12-20T06:33:08.541Z,14.80
2022-12-20T06:35:53.986Z,16.23
2022-12-20T06:38:39.175Z,15.10
2022-12-20T06:41:24.891Z,14.43
2022-12-20T06:44:10.483Z,16.77
2022-12-20T06:46:56.304Z,15.20
2022-12-20T06:49:41.692Z,15.13
2022-12-20T06:52:27.178Z,14.40
2022-12-20T06:55:12.409Z,17.37
2022-12-20T06:57:57.568Z,17.40
2022-12-20T07:00:43.127Z,15.67
2022-12-20T07:03:28.547Z,16.17
2022-12-20T07:06:14.038Z,17.33
2022-12-20T07:08:59.371Z,16.23
2022-12-20T07:11:44.616Z,18.23
2022-12-20T07:14:30.025Z,15.77
2022-12-20T07:17:15.503Z,18.70
2022-12-20T07:20:01.317Z,16.07
2022-12-20T07:22:49.953Z,14.67
2022-12-20T07:25:35.230Z,16.80
2022-12-20T07:28:21.195Z,15.27
2022-12-20T07:31:06.803Z,16.43
2022-12-20T07:33:55.364Z,14.60
2022-12-20T07:36:40.643Z,14.67
2022-12-20T07:39:26.170Z,18.33
2022-12-20T07:42:12.380Z,16.07
2022-12-20T07:51:25.200Z,17.80
2022-12-20T07:54:15.669Z,14.50
2022-12-20T07:57:12.728Z,17.47
2022-12-20T08:00:01.211Z,16.33
2022-12-20T08:02:52.929Z,14.53
2022-12-20T08:05:43.908Z,15.30
2022-12-20T08:08:32.814Z,16.17
2022-12-20T08:11:20.875Z,15.10
2022-12-20T08:14:07.671Z,15.07
2022-12-20T08:16:56.491Z,80.40
2022-12-20T08:19:41.902Z,22.10
2022-12-20T08:22:27.250Z,18.77
2022-12-20T08:25:12.887Z,18.50
2022-12-20T08:27:59.771Z,17.20
2022-12-20T08:30:51.426Z,16.33
2022-12-20T08:33:47.331Z,18.83
2022-12-20T08:36:32.975Z,18.50
2022-12-20T08:39:19.846Z,18.63
2022-12-20T08:42:05.664Z,20.03
2022-12-20T08:44:51.322Z,17.63
2022-12-20T08:47:36.852Z,17.93
2022-12-20T08:50:22.303Z,20.03
2022-12-20T08:53:07.495Z,19.60
2022-12-20T08:55:53.159Z,22.20
2022-12-20T08:58:39.680Z,20.70
2022-12-20T09:01:25.505Z,18.43
2022-12-20T09:04:11.931Z,19.40
2022-12-20T09:06:57.435Z,18.43
2022-12-20T09:09:42.897Z,18.10
2022-12-20T09:12:28.320Z,17.23
2022-12-20T09:15:13.464Z,21.20
2022-12-20T09:18:03.073Z,16.43
2022-12-20T09:20:49.830Z,16.27
2022-12-20T09:23:41.852Z,14.87
2022-12-20T09:26:33.902Z,15.80
2022-12-20T09:29:26.138Z,12.80
2022-12-20T09:32:19.971Z,11.83
2022-12-20T09:35:08.270Z,12.03
2022-12-20T09:37:59.656Z,11.20
2022-12-20T09:40:49.350Z,12.20
2022-12-20T09:43:35.618Z,11.20
2022-12-20T09:46:22.662Z,11.50
2022-12-20T09:49:15.292Z,12.73
2022-12-20T09:52:12.833Z,12.80
2022-12-20T09:55:08.608Z,11.87
2022-12-20T09:58:23.180Z,10.60
2022-12-20T10:01:23.054Z,11.80
2022-12-20T10:04:20.647Z,12.53
2022-12-20T10:07:05.597Z,11.97
2022-12-20T10:10:13.987Z,9.97
2022-12-20T10:13:34.451Z,10.93
2022-12-20T10:16:53.704Z,12.20
2022-12-20T10:20:16.290Z,10.93
2022-12-20T10:23:10.826Z,11.73
2022-12-20T10:25:57.617Z,11.37
2022-12-20T10:28:42.952Z,11.37
2022-12-20T10:31:28.669Z,12.17
2022-12-20T10:34:13.953Z,12.40
2022-12-20T10:37:12.086Z,10.40
2022-12-20T10:40:01.974Z,13.33
2022-12-20T10:42:50.699Z,14.17
2022-12-20T10:45:41.909Z,10.03
2022-12-20T10:48:37.416Z,12.27
2022-12-20T10:51:24.123Z,11.23
2022-12-20T10:54:23.489Z,13.37
2022-12-20T10:57:30.434Z,13.27
2022-12-20T11:00:28.862Z,11.37
2022-12-20T11:03:16.648Z,10.97
2022-12-20T11:06:03.913Z,10.87
2022-12-20T11:08:52.747Z,13.40
2022-12-20T11:11:59.685Z,12.73
2022-12-20T11:14:46.996Z,12.77
2022-12-20T11:17:37.868Z,11.97
2022-12-20T11:20:32.186Z,13.17
2022-12-20T11:23:32.926Z,11.87
2022-12-20T11:26:30.276Z,11.60
2022-12-20T11:29:37.316Z,11.50
2022-12-20T11:32:59.828Z,14.10
2022-12-20T11:35:59.302Z,10.13
2022-12-20T11:38:55.186Z,11.97
2022-12-20T11:41:54.811Z,10.90
2022-12-20T11:44:58.850Z,9.45
2022-12-20T11:48:26.482Z,10.63
2022-12-20T11:51:16.690Z,12.70
2022-12-20T11:54:36.023Z,11.90
2022-12-20T11:57:28.268Z,12.40
2022-12-20T12:00:14.720Z,10.33
2022-12-20T12:03:09.280Z,11.20
2022-12-20T12:06:03.667Z,9.63
2022-12-20T12:08:54.933Z,13.05
2022-12-20T12:12:07.774Z,9.60
2022-12-20T12:15:18.531Z,10.53
2022-12-20T12:18:17.245Z,11.38
2022-12-20T12:21:09.523Z,10.60
2022-12-20T12:24:18.761Z,14.23
2022-12-20T12:27:04.149Z,11.43
2022-12-20T12:29:49.654Z,12.40
2022-12-20T12:33:03.870Z,11.57
2022-12-20T12:36:52.282Z,8.13
2022-12-20T12:40:15.452Z,8.87
2022-12-20T12:43:40.588Z,9.38
2022-12-20T12:46:39.446Z,14.50
2022-12-20T12:49:31.115Z,9.95
2022-12-20T12:52:33.814Z,12.90
2022-12-20T12:55:37.043Z,12.57
2022-12-20T12:58:33.336Z,10.67
2022-12-20T13:01:54.057Z,11.97
2022-12-20T13:05:07.431Z,10.52
2022-12-20T13:07:53.914Z,13.10
2022-12-20T13:10:38.850Z,9.23
2022-12-20T13:13:25.127Z,10.43
2022-12-20T13:16:48.260Z,10.25
2022-12-20T13:19:37.257Z,9.23
2022-12-20T13:22:27.147Z,10.40
2022-12-20T13:25:37.293Z,8.70
2022-12-20T13:28:22.933Z,10.90
2022-12-20T13:31:08.505Z,11.80
2022-12-20T13:33:54.670Z,9.23
2022-12-20T13:36:40.095Z,8.65
2022-12-20T13:39:31.956Z,10.73
2022-12-20T13:42:29.303Z,10.60
2022-12-20T13:45:14.966Z,8.33
2022-12-20T13:48:11.125Z,9.30
2022-12-20T13:50:57.888Z,10.40
2022-12-20T13:53:55.438Z,12.27
2022-12-20T13:56:50.645Z,9.40
2022-12-20T13:59:35.689Z,11.33
2022-12-20T14:02:35.413Z,8.97
2022-12-20T14:05:26.372Z,9.73
2022-12-20T14:08:22.244Z,11.75
2022-12-20T14:11:12.490Z,11.93
2022-12-20T14:14:03.226Z,12.07
2022-12-20T14:16:48.531Z,10.97
2022-12-20T14:19:33.896Z,11.93
2022-12-20T14:22:19.414Z,11.60
2022-12-20T14:25:06.439Z,9.70
2022-12-20T14:27:51.823Z,11.55
2022-12-20T14:30:43.306Z,13.20
2022-12-20T14:33:46.835Z,10.97
2022-12-20T14:36:32.493Z,13.13
2022-12-20T14:39:34.491Z,10.47
2022-12-20T14:42:21.038Z,11.00
2022-12-20T14:45:20.667Z,9.80
2022-12-20T14:48:13.873Z,13.73
2022-12-20T14:51:04.940Z,11.43
2022-12-20T14:53:58.958Z,8.97
2022-12-20T14:56:49.114Z,9.17
2022-12-20T14:59:34.410Z,11.53
2022-12-20T15:03:15.738Z,9.07
2022-12-20T15:06:00.787Z,10.47
2022-12-20T15:08:51.988Z,12.07
2022-12-20T15:11:39.076Z,14.53
2022-12-20T15:14:30.332Z,11.80
2022-12-20T15:17:15.248Z,9.80
2022-12-20T15:20:00.755Z,13.13
2022-12-20T15:22:46.178Z,12.90
2022-12-20T15:25:42.775Z,17.13
2022-12-20T15:28:28.897Z,13.07
2022-12-20T15:31:17.916Z,15.77
2022-12-20T15:34:21.897Z,13.27
2022-12-20T15:37:17.987Z,13.20
2022-12-20T15:40:04.561Z,14.30
2022-12-20T15:42:51.358Z,20.97
2022-12-20T15:45:36.708Z,16.27
2022-12-20T15:48:23.405Z,17.80
2022-12-20T15:51:18.337Z,18.07
2022-12-20T15:54:07.531Z,17.53
2022-12-20T15:56:54.417Z,17.27
2022-12-20T16:03:00.229Z,18.00
2022-12-20T16:05:49.890Z,16.97
2022-12-20T16:08:35.137Z,23.47
2022-12-20T16:11:25.952Z,24.17
2022-12-20T16:14:17.455Z,25.60
2022-12-20T16:17:04.004Z,27.63
2022-12-20T16:19:49.172Z,33.00
2022-12-20T16:25:32.126Z,30.47
2022-12-20T16:28:17.590Z,30.47
2022-12-20T16:31:11.962Z,31.03
2022-12-20T16:33:59.056Z,33.83
2022-12-20T16:36:46.030Z,29.30
2022-12-20T16:39:31.342Z,25.97
2022-12-20T16:42:18.889Z,25.03
2022-12-20T16:45:04.151Z,31.43
2022-12-20T16:47:49.668Z,25.00
2022-12-20T16:50:36.375Z,24.77
2022-12-20T16:53:21.796Z,28.50
2022-12-20T16:56:14.353Z,25.80
2022-12-20T16:59:18.548Z,28.23
2022-12-20T17:02:22.450Z,26.67
2022-12-20T17:05:21.050Z,27.27
2022-12-20T17:11:30.565Z,25.60
2022-12-20T17:14:15.766Z,24.97
2022-12-20T17:17:03.450Z,22.83
2022-12-20T17:19:48.764Z,25.37
2022-12-20T17:22:34.232Z,23.50
2022-12-20T17:25:21.725Z,23.33
2022-12-20T17:28:06.799Z,22.30
2022-12-20T17:30:52.249Z,21.60
2022-12-20T17:33:37.103Z,17.97
2022-12-20T17:36:22.501Z,22.60
2022-12-20T17:39:07.944Z,21.50
2022-12-20T17:41:55.049Z,19.50
2022-12-20T17:44:40.266Z,22.63
2022-12-20T17:47:25.178Z,21.60
2022-12-20T17:50:10.863Z,20.17
2022-12-20T17:52:56.180Z,21.53
2022-12-20T17:55:41.331Z,20.83
2022-12-20T17:58:26.312Z,25.07
2022-12-20T18:01:20.223Z,26.80
2022-12-20T18:04:08.456Z,26.17
2022-12-20T18:06:53.725Z,23.30
2022-12-20T18:09:39.047Z,24.90
2022-12-20T18:12:23.966Z,26.73
2022-12-20T18:15:09.989Z,24.50
2022-12-20T18:17:55.333Z,26.07
2022-12-20T18:20:40.687Z,25.47
2022-12-20T18:23:26.320Z,26.97
2022-12-20T18:26:21.521Z,24.60
2022-12-20T18:29:06.462Z,24.30
2022-12-20T18:31:52.032Z,27.87
2022-12-20T18:34:37.227Z,29.40
2022-12-20T18:37:22.149Z,28.33
2022-12-20T18:40:07.919Z,29.00
2022-12-20T18:42:53.207Z,27.10
2022-12-20T18:45:38.699Z,29.10
2022-12-20T18:48:24.586Z,27.17
2022-12-20T18:51:15.879Z,31.70
2022-12-20T18:54:01.347Z,27.93
2022-12-20T18:56:46.611Z,28.33
2022-12-20T18:59:31.895Z,27.80
2022-12-20T19:02:17.217Z,27.73
2022-12-20T19:05:02.476Z,25.43
2022-12-20T19:07:47.884Z,25.37
2022-12-20T19:10:33.236Z,26.17
2022-12-20T19:13:19.514Z,26.50
2022-12-20T19:16:08.312Z,33.50
2022-12-20T19:18:53.609Z,28.80
2022-12-20T19:21:41.362Z,29.00
2022-12-20T19:24:26.542Z,27.97
2022-12-20T19:27:11.908Z,27.30
2022-12-20T19:29:57.349Z,27.03
2022-12-20T19:32:42.327Z,27.63
2022-12-20T19:35:54.976Z,25.10
2022-12-20T19:38:32.846Z,26.63
2022-12-20T19:41:19.930Z,26.97
2022-12-20T19:44:05.223Z,28.03
2022-12-20T19:46:50.122Z,24.83
2022-12-20T19:49:35.846Z,23.63
2022-12-20T19:52:28.060Z,26.80
2022-12-20T19:55:13.981Z,26.23
2022-12-20T19:57:59.121Z,25.93
2022-12-20T20:00:47.616Z,29.10
2022-12-20T20:03:33.648Z,24.13
2022-12-20T20:06:23.179Z,27.40
2022-12-20T20:09:08.346Z,23.77
2022-12-20T20:11:53.028Z,25.13
2022-12-20T20:14:37.951Z,22.37
2022-12-20T20:17:22.674Z,22.17
2022-12-20T20:20:08.133Z,21.10
2022-12-20T20:22:53.327Z,21.53
2022-12-20T20:25:47.657Z,19.77
2022-12-20T20:28:37.098Z,20.03
2022-12-20T20:31:25.270Z,16.80
2022-12-20T20:34:10.765Z,20.50
2022-12-20T20:39:37.119Z,21.03
2022-12-20T20:42:23.548Z,20.17
2022-12-20T20:45:09.403Z,22.30
2022-12-20T20:47:54.854Z,21.83
2022-12-20T20:50:40.499Z,20.33
2022-12-20T20:53:31.210Z,19.20
2022-12-20T20:56:18.863Z,21.30
2022-12-20T20:59:08.179Z,19.60
2022-12-20T21:01:56.125Z,19.20
2022-12-20T21:04:41.466Z,18.57
2022-12-20T21:07:26.346Z,20.50
2022-12-20T21:10:11.393Z,17.00
2022-12-20T21:12:56.528Z,22.97
2022-12-20T21:15:42.166Z,18.50
2022-12-20T21:18:27.375Z,20.93
2022-12-20T21:21:13.201Z,21.00
2022-12-20T21:23:59.690Z,19.97
2022-12-20T21:26:44.917Z,20.33
2022-12-20T21:29:29.917Z,23.17
2022-12-20T21:32:15.229Z,21.10
2022-12-20T21:35:00.099Z,21.13
2022-12-20T21:37:45.690Z,20.07
2022-12-20T21:40:30.818Z,23.03
2022-12-20T21:43:16.467Z,20.93
2022-12-20T21:46:02.036Z,21.33
2022-12-20T21:48:47.374Z,23.03
2022-12-20T21:51:32.774Z,23.17
2022-12-20T21:54:17.818Z,22.53
2022-12-20T21:57:03.078Z,19.83
2022-12-20T21:59:47.974Z,27.13
2022-12-20T22:02:32.804Z,23.10
2022-12-20T22:05:18.275Z,20.93
2022-12-20T22:08:03.134Z,21.13
2022-12-20T22:10:48.223Z,24.50
2022-12-20T22:13:40.729Z,26.50
2022-12-20T22:16:29.552Z,27.77
2022-12-20T22:19:14.523Z,32.67
2022-12-20T22:21:59.202Z,28.40
2022-12-20T22:24:44.138Z,31.10
2022-12-20T22:27:30.109Z,28.80
2022-12-20T22:30:15.562Z,26.30
2022-12-20T22:33:01.032Z,31.50
2022-12-20T22:35:46.455Z,30.37
2022-12-20T22:38:31.584Z,29.57
2022-12-20T22:41:37.016Z,33.23
2022-12-20T22:44:22.084Z,28.00
2022-12-20T22:47:07.604Z,24.13
2022-12-20T22:49:52.946Z,29.10
2022-12-20T22:52:38.133Z,28.83
2022-12-20T22:55:23.575Z,28.80
2022-12-20T22:58:08.410Z,28.67
2022-12-20T23:00:56.814Z,28.00
2022-12-20T23:03:42.623Z,25.47
2022-12-20T23:06:27.928Z,26.33
2022-12-20T23:09:12.979Z,30.20
2022-12-20T23:11:57.772Z,28.40
2022-12-20T23:14:42.773Z,28.13
2022-12-20T23:17:27.861Z,26.80
2022-12-20T23:20:12.942Z,33.30
2022-12-20T23:22:58.159Z,29.43
2022-12-20T23:25:43.057Z,29.00
2022-12-20T23:28:27.839Z,27.60
2022-12-20T23:31:12.610Z,29.43
2022-12-20T23:33:58.539Z,25.80
2022-12-20T23:36:43.713Z,31.10
2022-12-20T23:39:28.699Z,30.50
2022-12-20T23:42:13.977Z,30.93
2022-12-20T23:44:58.975Z,31.03
2022-12-20T23:47:44.221Z,31.83
2022-12-20T23:50:29.164Z,32.13
2022-12-20T23:53:14.124Z,31.80
2022-12-20T23:56:03.983Z,30.70
2022-12-20T23:58:54.094Z,31.87
